createdAt,value
2023-10-23T00:00:12.122Z,10.89
2023-10-23T00:02:38.936Z,10.88
2023-10-23T00:05:06.746Z,10.86
2023-10-23T00:07:33.469Z,10.84
2023-10-23T00:10:00.244Z,10.83
2023-10-23T00:12:26.943Z,10.82
2023-10-23T00:14:53.699Z,10.80
2023-10-23T00:17:20.433Z,10.79
2023-10-23T00:19:47.072Z,10.77
2023-10-23T00:22:13.721Z,10.75
2023-10-23T00:24:40.597Z,10.73
2023-10-23T00:27:07.456Z,10.71
2023-10-23T00:29:34.177Z,10.70
2023-10-23T00:32:00.819Z,10.69
2023-10-23T00:34:27.549Z,10.69
2023-10-23T00:36:54.194Z,10.68
2023-10-23T00:39:21.023Z,10.67
2023-10-23T00:41:47.651Z,10.67
2023-10-23T00:44:14.375Z,10.65
2023-10-23T00:46:41.518Z,10.65
2023-10-23T00:49:09.522Z,10.63
2023-10-23T00:51:36.743Z,10.61
2023-10-23T00:54:07.028Z,10.58
2023-10-23T00:56:34.902Z,10.57
2023-10-23T00:59:02.114Z,10.56
2023-10-23T01:01:30.266Z,10.55
2023-10-23T01:03:57.319Z,10.47
2023-10-23T01:06:24.063Z,10.53
2023-10-23T01:08:50.764Z,10.55
2023-10-23T01:11:17.592Z,10.55
2023-10-23T01:13:44.312Z,10.54
2023-10-23T01:16:11.038Z,10.54
2023-10-23T01:18:37.832Z,10.56
2023-10-23T01:21:04.555Z,10.56
2023-10-23T01:23:35.872Z,10.58
2023-10-23T01:26:02.714Z,10.59
2023-10-23T01:28:29.556Z,10.60
2023-10-23T01:30:56.284Z,10.62
2023-10-23T01:33:23.086Z,10.61
2023-10-23T01:35:49.916Z,10.62
2023-10-23T01:38:17.140Z,10.62
2023-10-23T01:40:43.816Z,10.59
2023-10-23T01:43:10.526Z,10.59
2023-10-23T01:45:37.303Z,10.58
2023-10-23T01:48:04.299Z,10.57
2023-10-23T01:50:31.062Z,10.57
2023-10-23T01:52:57.849Z,10.55
2023-10-23T01:55:24.530Z,10.53
2023-10-23T01:57:51.261Z,10.52
2023-10-23T02:00:18.269Z,10.52
2023-10-23T02:02:45.089Z,10.52
2023-10-23T02:05:11.739Z,10.51
2023-10-23T02:07:38.526Z,10.51
2023-10-23T02:10:05.578Z,10.50
2023-10-23T02:12:32.220Z,10.48
2023-10-23T02:15:00.433Z,10.46
2023-10-23T02:17:27.130Z,10.43
2023-10-23T02:19:53.775Z,10.41
2023-10-23T02:22:20.493Z,10.38
2023-10-23T02:24:47.269Z,10.36
2023-10-23T02:27:14.140Z,10.34
2023-10-23T02:29:40.820Z,10.31
2023-10-23T02:32:08.378Z,10.29
2023-10-23T02:34:38.683Z,10.26
2023-10-23T02:37:08.230Z,10.24
2023-10-23T02:39:34.997Z,10.23
2023-10-23T02:42:01.790Z,10.22
2023-10-23T02:44:28.515Z,10.21
2023-10-23T02:46:55.360Z,10.21
2023-10-23T02:49:22.103Z,10.19
2023-10-23T02:51:48.990Z,10.17
2023-10-23T02:54:15.709Z,10.15
2023-10-23T02:56:42.454Z,10.13
2023-10-23T02:59:09.090Z,10.11
2023-10-23T03:01:35.922Z,10.10
2023-10-23T03:04:02.794Z,10.09
2023-10-23T03:06:30.161Z,10.06
2023-10-23T03:08:58.989Z,10.06
2023-10-23T03:11:26.874Z,9.97
2023-10-23T03:13:53.526Z,10.02
2023-10-23T03:16:20.267Z,10.01
2023-10-23T03:18:47.161Z,10.01
2023-10-23T03:21:13.887Z,10.00
2023-10-23T03:23:40.867Z,9.99
2023-10-23T03:26:07.557Z,9.98
2023-10-23T03:28:34.246Z,9.99
2023-10-23T03:31:02.219Z,10.00
2023-10-23T03:33:28.874Z,10.00
2023-10-23T03:35:55.524Z,10.01
2023-10-23T03:38:22.173Z,9.99
2023-10-23T03:40:59.318Z,9.97
2023-10-23T03:43:26.437Z,9.96
2023-10-23T03:45:53.233Z,9.96
2023-10-23T03:48:20.064Z,9.96
2023-10-23T03:50:46.830Z,9.95
2023-10-23T03:53:13.601Z,9.94
2023-10-23T03:55:40.451Z,9.91
2023-10-23T03:58:07.145Z,9.89
2023-10-23T04:00:34.156Z,9.87
2023-10-23T04:03:00.866Z,9.84
2023-10-23T04:05:27.680Z,9.84
2023-10-23T04:07:54.300Z,9.83
2023-10-23T04:10:21.110Z,9.80
2023-10-23T04:12:47.861Z,9.79
2023-10-23T04:15:14.636Z,9.76
2023-10-23T04:17:41.271Z,9.74
2023-10-23T04:20:08.546Z,9.72
2023-10-23T04:22:35.165Z,9.69
2023-10-23T04:25:01.842Z,9.67
2023-10-23T04:27:28.609Z,9.64
2023-10-23T04:29:55.219Z,9.63
2023-10-23T04:32:21.873Z,9.60
2023-10-23T04:34:48.452Z,9.58
2023-10-23T04:37:15.314Z,9.57
2023-10-23T04:39:42.233Z,9.55
2023-10-23T04:42:09.084Z,9.53
2023-10-23T04:44:35.763Z,9.53
2023-10-23T04:47:02.595Z,9.50
2023-10-23T04:49:29.476Z,9.50
2023-10-23T04:51:56.229Z,9.48
2023-10-23T04:54:22.861Z,9.46
2023-10-23T04:56:49.663Z,9.42
2023-10-23T04:59:16.312Z,9.40
2023-10-23T05:01:42.991Z,9.39
2023-10-23T05:04:09.795Z,9.37
2023-10-23T05:06:36.511Z,9.35
2023-10-23T05:09:03.418Z,9.34
2023-10-23T05:11:30.071Z,9.33
2023-10-23T05:13:56.937Z,9.32
2023-10-23T05:16:23.699Z,9.30
2023-10-23T05:18:50.876Z,9.28
2023-10-23T05:21:17.875Z,9.27
2023-10-23T05:23:44.561Z,9.26
2023-10-23T05:26:11.261Z,9.26
2023-10-23T05:28:41.785Z,9.25
2023-10-23T05:31:08.957Z,9.25
2023-10-23T05:33:36.272Z,9.28
2023-10-23T05:36:03.600Z,9.26
2023-10-23T05:38:30.329Z,9.28
2023-10-23T05:40:58.232Z,9.29
2023-10-23T05:43:28.158Z,9.21
2023-10-23T05:45:55.922Z,9.26
2023-10-23T05:48:22.867Z,9.27
2023-10-23T05:51:04.191Z,9.26
2023-10-23T05:53:31.993Z,9.28
2023-10-23T05:56:05.788Z,9.28
2023-10-23T05:58:33.713Z,9.30
2023-10-23T06:01:07.463Z,9.31
2023-10-23T06:03:35.142Z,9.32
2023-10-23T06:06:02.054Z,9.33
2023-10-23T06:08:28.712Z,9.36
2023-10-23T06:10:55.456Z,9.38
2023-10-23T06:13:22.262Z,9.39
2023-10-23T06:15:49.720Z,9.42
2023-10-23T06:18:16.506Z,9.43
2023-10-23T06:20:43.228Z,9.45
2023-10-23T06:23:09.976Z,9.48
2023-10-23T06:25:36.646Z,9.49
2023-10-23T06:28:03.353Z,9.51
2023-10-23T06:30:30.693Z,9.53
2023-10-23T06:32:58.109Z,9.55
2023-10-23T06:35:24.916Z,9.57
2023-10-23T06:37:51.748Z,9.61
2023-10-23T06:40:18.396Z,9.63
2023-10-23T06:42:45.165Z,9.67
2023-10-23T06:45:11.898Z,9.70
2023-10-23T06:47:38.672Z,9.75
2023-10-23T06:50:06.181Z,9.80
2023-10-23T06:52:33.776Z,9.85
2023-10-23T06:55:00.449Z,9.88
2023-10-23T06:57:27.326Z,9.96
2023-10-23T06:59:54.082Z,10.04
2023-10-23T07:02:20.734Z,10.11
2023-10-23T07:04:47.439Z,10.20
2023-10-23T07:07:26.065Z,10.26
2023-10-23T07:09:57.108Z,10.36
2023-10-23T07:12:23.800Z,10.42
2023-10-23T07:14:50.649Z,10.50
2023-10-23T07:17:18.177Z,10.57
2023-10-23T07:19:45.009Z,10.63
2023-10-23T07:22:11.834Z,10.71
2023-10-23T07:24:38.525Z,10.79
2023-10-23T07:27:05.212Z,10.86
2023-10-23T07:29:31.953Z,10.92
2023-10-23T07:31:58.622Z,10.99
2023-10-23T07:34:25.259Z,11.05
2023-10-23T07:36:52.026Z,11.12
2023-10-23T07:39:18.626Z,11.18
2023-10-23T07:41:45.380Z,11.25
2023-10-23T07:44:11.978Z,11.31
2023-10-23T07:46:40.594Z,11.39
2023-10-23T07:49:07.451Z,11.46
2023-10-23T07:51:34.055Z,11.52
2023-10-23T07:54:00.781Z,11.59
2023-10-23T07:56:27.428Z,11.69
2023-10-23T07:58:54.679Z,11.77
2023-10-23T08:01:21.366Z,11.86
2023-10-23T08:03:48.185Z,11.94
2023-10-23T08:06:16.727Z,12.06
2023-10-23T08:08:44.171Z,12.17
2023-10-23T08:11:12.443Z,12.30
2023-10-23T08:13:39.700Z,12.42
2023-10-23T08:16:06.970Z,12.54
2023-10-23T08:18:40.038Z,12.68
2023-10-23T08:21:16.576Z,12.82
2023-10-23T08:23:45.214Z,12.94
2023-10-23T08:26:11.912Z,13.05
2023-10-23T08:31:16.734Z,13.30
2023-10-23T08:33:47.783Z,13.40
2023-10-23T08:36:14.509Z,13.50
2023-10-23T08:38:41.169Z,13.58
2023-10-23T08:41:11.839Z,13.67
2023-10-23T08:43:40.283Z,13.73
2023-10-23T08:46:07.116Z,13.79
2023-10-23T08:48:33.861Z,13.84
2023-10-23T08:51:00.842Z,13.88
2023-10-23T08:53:33.444Z,13.93
2023-10-23T08:56:04.155Z,13.99
2023-10-23T08:58:32.745Z,14.02
2023-10-23T09:00:59.479Z,14.06
2023-10-23T09:04:01.798Z,14.10
2023-10-23T09:06:17.779Z,14.14
2023-10-23T09:08:45.100Z,14.14
2023-10-23T09:11:11.897Z,14.16
2023-10-23T09:13:40.787Z,14.19
2023-10-23T09:16:08.698Z,14.17
2023-10-23T09:18:45.556Z,14.18
2023-10-23T09:21:12.327Z,14.22
2023-10-23T09:23:52.648Z,14.26
2023-10-23T09:26:19.804Z,14.30
2023-10-23T09:28:47.336Z,14.33
2023-10-23T09:31:14.818Z,14.37
2023-10-23T09:33:41.610Z,14.41
2023-10-23T09:36:08.835Z,14.48
2023-10-23T09:38:35.826Z,14.54
2023-10-23T09:41:02.509Z,14.62
2023-10-23T09:43:29.191Z,14.71
2023-10-23T09:45:58.557Z,14.77
2023-10-23T09:48:26.389Z,14.87
2023-10-23T09:50:56.012Z,14.97
2023-10-23T09:53:23.005Z,15.07
2023-10-23T09:55:52.684Z,15.16
2023-10-23T09:58:21.951Z,15.27
2023-10-23T10:00:49.335Z,15.35
2023-10-23T10:03:19.181Z,15.44
2023-10-23T10:05:59.180Z,15.59
2023-10-23T10:08:27.836Z,15.72
2023-10-23T10:10:55.205Z,15.87
2023-10-23T10:13:22.326Z,15.97
2023-10-23T10:15:50.831Z,16.07
2023-10-23T10:18:17.756Z,16.20
2023-10-23T10:20:48.732Z,16.29
2023-10-23T10:23:17.266Z,16.40
2023-10-23T10:25:47.125Z,16.49
2023-10-23T10:28:14.942Z,16.58
2023-10-23T10:30:45.649Z,16.66
2023-10-23T10:34:18.720Z,16.72
2023-10-23T10:36:45.289Z,16.80
2023-10-23T10:39:05.139Z,16.86
2023-10-23T10:41:36.056Z,16.93
2023-10-23T10:44:09.885Z,16.99
2023-10-23T10:46:36.791Z,17.07
2023-10-23T10:49:04.866Z,17.10
2023-10-23T10:51:31.596Z,17.15
2023-10-23T10:54:03.536Z,17.22
2023-10-23T10:56:33.685Z,17.28
2023-10-23T10:59:04.529Z,17.34
2023-10-23T11:01:32.453Z,17.43
2023-10-23T11:04:00.444Z,17.49
2023-10-23T11:06:27.209Z,17.48
2023-10-23T11:08:53.936Z,17.63
2023-10-23T11:11:20.684Z,17.68
2023-10-23T11:13:47.341Z,17.67
2023-10-23T11:16:14.198Z,17.70
2023-10-23T11:18:40.939Z,17.69
2023-10-23T11:21:07.648Z,17.71
2023-10-23T11:23:34.266Z,17.73
2023-10-23T11:26:01.025Z,17.71
2023-10-23T11:28:27.744Z,17.68
2023-10-23T11:30:56.609Z,17.67
2023-10-23T11:33:23.370Z,17.69
2023-10-23T11:35:50.029Z,17.70
2023-10-23T11:38:21.119Z,17.73
2023-10-23T11:40:47.900Z,17.75
2023-10-23T11:43:15.699Z,17.77
2023-10-23T11:45:42.910Z,17.79
2023-10-23T11:48:12.068Z,17.82
2023-10-23T11:50:40.759Z,17.81
2023-10-23T11:53:07.549Z,17.83
2023-10-23T11:55:36.443Z,17.85
2023-10-23T11:58:03.485Z,17.87
2023-10-23T12:00:32.912Z,17.95
2023-10-23T12:02:59.911Z,18.01
2023-10-23T12:05:26.669Z,18.05
2023-10-23T12:07:56.936Z,18.10
2023-10-23T12:10:28.904Z,18.12
2023-10-23T12:12:56.493Z,18.11
2023-10-23T12:15:24.583Z,18.10
2023-10-23T12:17:51.235Z,18.01
2023-10-23T12:20:17.909Z,18.14
2023-10-23T12:22:46.175Z,18.18
2023-10-23T12:25:14.157Z,18.19
2023-10-23T12:27:41.380Z,18.15
2023-10-23T12:30:10.148Z,18.29
2023-10-23T12:33:17.500Z,18.40
2023-10-23T12:35:24.409Z,18.44
2023-10-23T12:37:51.248Z,18.45
2023-10-23T12:40:18.010Z,18.46
2023-10-23T12:42:44.888Z,18.43
2023-10-23T12:45:11.715Z,18.45
2023-10-23T12:47:38.412Z,18.47
2023-10-23T12:50:05.748Z,18.43
2023-10-23T12:52:33.311Z,18.39
2023-10-23T12:55:00.130Z,18.39
2023-10-23T12:57:26.999Z,18.41
2023-10-23T12:59:53.700Z,18.38
2023-10-23T13:02:20.383Z,18.39
2023-10-23T13:04:49.717Z,18.40
2023-10-23T13:07:17.098Z,18.45
2023-10-23T13:09:43.873Z,18.51
2023-10-23T13:12:10.690Z,18.57
2023-10-23T13:14:37.364Z,18.64
2023-10-23T13:17:04.112Z,18.64
2023-10-23T13:19:30.921Z,18.65
2023-10-23T13:21:57.707Z,18.67
2023-10-23T13:24:24.388Z,18.70
2023-10-23T13:26:50.981Z,18.71
2023-10-23T13:29:17.668Z,18.73
2023-10-23T13:31:44.650Z,18.77
2023-10-23T13:34:11.427Z,18.80
2023-10-23T13:36:38.166Z,18.89
2023-10-23T13:39:05.011Z,18.88
2023-10-23T13:41:31.742Z,18.89
2023-10-23T13:43:58.342Z,18.89
2023-10-23T13:46:25.172Z,18.88
2023-10-23T13:48:52.031Z,18.88
2023-10-23T13:51:18.806Z,18.84
2023-10-23T13:53:45.440Z,18.83
2023-10-23T13:56:12.139Z,18.83
2023-10-23T13:58:38.848Z,18.90
2023-10-23T14:01:05.563Z,18.89
2023-10-23T14:03:32.417Z,18.89
2023-10-23T14:05:59.200Z,18.90
2023-10-23T14:09:38.626Z,18.93
2023-10-23T14:11:57.842Z,18.90
2023-10-23T14:13:59.831Z,18.90
2023-10-23T14:16:27.567Z,18.87
2023-10-23T14:18:54.407Z,18.81
2023-10-23T14:21:21.201Z,18.79
2023-10-23T14:23:47.818Z,18.75
2023-10-23T14:26:14.470Z,18.72
2023-10-23T14:28:41.287Z,18.68
2023-10-23T14:31:08.001Z,18.65
2023-10-23T14:33:34.607Z,18.62
2023-10-23T14:36:01.315Z,18.60
2023-10-23T14:38:27.971Z,18.53
2023-10-23T14:40:55.602Z,18.51
2023-10-23T14:43:22.326Z,18.49
2023-10-23T14:45:49.061Z,18.49
2023-10-23T14:48:15.850Z,18.49
2023-10-23T14:50:42.523Z,18.47
2023-10-23T14:53:09.167Z,18.49
2023-10-23T14:55:35.877Z,18.47
2023-10-23T14:58:02.699Z,18.47
2023-10-23T15:00:29.350Z,18.45
2023-10-23T15:02:56.070Z,18.44
2023-10-23T15:05:22.734Z,18.43
2023-10-23T15:07:49.500Z,18.42
2023-10-23T15:10:16.376Z,18.41
2023-10-23T15:12:43.271Z,18.41
2023-10-23T15:15:10.479Z,18.42
2023-10-23T15:17:37.198Z,18.41
2023-10-23T15:20:04.044Z,18.41
2023-10-23T15:22:31.596Z,18.38
2023-10-23T15:24:59.606Z,18.36
2023-10-23T15:27:26.392Z,18.31
2023-10-23T15:29:53.033Z,18.26
2023-10-23T15:32:19.657Z,18.21
2023-10-23T15:34:46.749Z,18.16
2023-10-23T15:37:13.437Z,18.06
2023-10-23T15:39:40.465Z,17.98
2023-10-23T15:42:07.778Z,17.87
2023-10-23T15:44:34.923Z,17.79
2023-10-23T15:47:01.694Z,17.68
2023-10-23T15:49:28.367Z,17.58
2023-10-23T15:51:55.057Z,17.48
2023-10-23T15:54:21.747Z,17.38
2023-10-23T15:56:48.565Z,17.29
2023-10-23T15:59:15.224Z,17.17
2023-10-23T16:01:41.936Z,17.06
2023-10-23T16:04:09.135Z,16.96
2023-10-23T16:06:35.852Z,16.84
2023-10-23T16:09:13.199Z,16.75
2023-10-23T16:11:48.999Z,16.62
2023-10-23T16:14:17.889Z,16.52
2023-10-23T16:16:44.626Z,16.44
2023-10-23T16:19:11.390Z,16.36
2023-10-23T16:21:38.054Z,16.25
2023-10-23T16:24:05.101Z,16.18
2023-10-23T16:26:31.741Z,16.09
2023-10-23T16:28:58.390Z,16.03
2023-10-23T16:31:27.828Z,15.96
2023-10-23T16:33:54.589Z,15.90
2023-10-23T16:36:21.322Z,15.84
2023-10-23T16:38:47.929Z,15.78
2023-10-23T16:41:14.578Z,15.73
2023-10-23T16:43:41.628Z,15.70
2023-10-23T16:46:08.504Z,15.64
2023-10-23T16:48:35.227Z,15.62
2023-10-23T16:51:03.440Z,15.57
2023-10-23T16:53:30.046Z,15.52
2023-10-23T16:55:56.687Z,15.49
2023-10-23T16:58:23.349Z,15.47
2023-10-23T17:00:51.814Z,15.43
2023-10-23T17:03:18.610Z,15.41
2023-10-23T17:05:45.593Z,15.38
2023-10-23T17:08:12.277Z,15.35
2023-10-23T17:10:39.016Z,15.32
2023-10-23T17:13:05.739Z,15.30
2023-10-23T17:15:32.405Z,15.29
2023-10-23T17:17:59.991Z,15.27
2023-10-23T17:20:26.655Z,15.24
2023-10-23T17:22:53.267Z,15.23
2023-10-23T17:25:20.000Z,15.23
2023-10-23T17:27:46.673Z,15.22
2023-10-23T17:30:13.596Z,15.20
2023-10-23T17:32:41.174Z,15.19
2023-10-23T17:35:08.104Z,15.18
2023-10-23T17:37:34.816Z,15.16
2023-10-23T17:40:01.643Z,15.15
2023-10-23T17:42:28.371Z,15.13
2023-10-23T17:44:55.001Z,15.13
2023-10-23T17:47:21.783Z,15.13
2023-10-23T17:49:48.494Z,15.12
2023-10-23T17:52:15.181Z,15.11
2023-10-23T17:54:41.907Z,15.10
2023-10-23T17:57:08.552Z,15.10
2023-10-23T17:59:35.230Z,15.09
2023-10-23T18:02:02.226Z,15.08
2023-10-23T18:04:29.071Z,15.07
2023-10-23T18:06:55.972Z,15.05
2023-10-23T18:09:22.583Z,15.04
2023-10-23T18:11:49.184Z,15.04
2023-10-23T18:14:15.773Z,15.03
2023-10-23T18:16:42.403Z,15.00
2023-10-23T18:19:09.153Z,15.00
2023-10-23T18:21:35.793Z,15.00
2023-10-23T18:24:02.413Z,14.99
2023-10-23T18:26:29.044Z,14.98
2023-10-23T18:28:55.716Z,14.97
2023-10-23T18:31:22.404Z,14.97
2023-10-23T18:33:49.229Z,14.96
2023-10-23T18:36:16.725Z,14.95
2023-10-23T18:38:43.475Z,14.94
2023-10-23T18:41:16.368Z,14.93
2023-10-23T18:43:44.369Z,14.93
2023-10-23T18:46:12.049Z,14.82
2023-10-23T18:48:39.227Z,14.86
2023-10-23T18:51:06.176Z,14.86
2023-10-23T18:53:33.158Z,14.83
2023-10-23T18:56:00.025Z,14.82
2023-10-23T18:58:26.683Z,14.79
2023-10-23T19:00:53.669Z,14.78
2023-10-23T19:03:20.367Z,14.75
2023-10-23T19:05:47.066Z,14.74
2023-10-23T19:08:13.809Z,14.73
2023-10-23T19:10:40.772Z,14.69
2023-10-23T19:13:07.537Z,14.68
2023-10-23T19:15:34.297Z,14.66
2023-10-23T19:18:01.060Z,14.64
2023-10-23T19:20:27.806Z,14.63
2023-10-23T19:22:54.420Z,14.61
2023-10-23T19:25:21.465Z,14.59
2023-10-23T19:27:48.286Z,14.57
2023-10-23T19:30:15.225Z,14.54
2023-10-23T19:32:42.260Z,14.53
2023-10-23T19:35:09.967Z,14.50
2023-10-23T19:37:36.953Z,14.49
2023-10-23T19:40:04.153Z,14.48
2023-10-23T19:42:37.837Z,14.47
2023-10-23T19:45:04.992Z,14.46
2023-10-23T19:47:32.065Z,14.42
2023-10-23T19:49:59.169Z,14.41
2023-10-23T19:52:27.254Z,14.40
2023-10-23T19:54:55.233Z,14.31
2023-10-23T19:57:33.344Z,14.37
2023-10-23T20:00:00.039Z,14.36
2023-10-23T20:02:26.766Z,14.37
2023-10-23T20:04:53.690Z,14.36
2023-10-23T20:07:20.511Z,14.37
2023-10-23T20:09:47.899Z,14.34
2023-10-23T20:12:14.785Z,14.33
2023-10-23T20:14:41.550Z,14.33
2023-10-23T20:17:08.305Z,14.32
2023-10-23T20:19:35.010Z,14.32
2023-10-23T20:22:01.802Z,14.31
2023-10-23T20:24:28.816Z,14.30
2023-10-23T20:26:55.601Z,14.30
2023-10-23T20:29:22.739Z,14.30
2023-10-23T20:31:49.377Z,14.28
2023-10-23T20:34:16.103Z,14.30
2023-10-23T20:36:42.864Z,14.29
2023-10-23T20:39:10.173Z,14.31
2023-10-23T20:41:36.780Z,14.31
2023-10-23T20:44:03.480Z,14.31
2023-10-23T20:46:30.202Z,14.30
2023-10-23T20:48:56.928Z,14.30
2023-10-23T20:51:23.536Z,14.30
2023-10-23T20:53:50.491Z,14.31
2023-10-23T20:56:17.190Z,14.29
2023-10-23T20:58:43.838Z,14.28
2023-10-23T21:01:10.750Z,14.29
2023-10-23T21:03:37.581Z,14.28
2023-10-23T21:06:05.475Z,14.27
2023-10-23T21:08:39.810Z,14.25
2023-10-23T21:11:07.281Z,14.23
2023-10-23T21:13:35.037Z,14.23
2023-10-23T21:16:02.013Z,14.21
2023-10-23T21:18:28.960Z,14.21
2023-10-23T21:20:56.292Z,14.20
2023-10-23T21:23:23.093Z,14.18
2023-10-23T21:25:49.701Z,14.19
2023-10-23T21:28:16.580Z,14.18
2023-10-23T21:30:43.228Z,14.17
2023-10-23T21:33:09.928Z,14.15
2023-10-23T21:35:36.549Z,14.17
2023-10-23T21:38:03.390Z,14.15
2023-10-23T21:40:30.005Z,14.15
2023-10-23T21:42:56.697Z,14.15
2023-10-23T21:45:24.322Z,14.17
2023-10-23T21:47:51.420Z,14.07
2023-10-23T21:50:18.249Z,14.13
2023-10-23T21:52:45.128Z,14.15
2023-10-23T21:55:18.334Z,14.13
2023-10-23T21:57:45.601Z,14.13
2023-10-23T22:00:13.021Z,14.13
2023-10-23T22:02:40.415Z,14.11
2023-10-23T22:05:07.620Z,14.11
2023-10-23T22:07:34.467Z,14.10
2023-10-23T22:10:01.366Z,14.12
2023-10-23T22:12:28.203Z,14.11
2023-10-23T22:14:54.777Z,14.13
2023-10-23T22:17:21.552Z,14.13
2023-10-23T22:19:48.268Z,14.14
2023-10-23T22:22:14.902Z,14.15
2023-10-23T22:24:41.737Z,14.17
2023-10-23T22:27:08.521Z,14.18
2023-10-23T22:29:35.425Z,14.18
2023-10-23T22:32:02.069Z,14.18
2023-10-23T22:34:28.835Z,14.19
2023-10-23T22:37:58.554Z,14.21
2023-10-23T22:39:42.159Z,14.20
2023-10-23T22:42:08.938Z,14.20
2023-10-23T22:44:35.672Z,14.20
2023-10-23T22:47:02.366Z,14.18
2023-10-23T22:49:29.427Z,14.18
2023-10-23T22:51:56.520Z,14.15
2023-10-23T22:54:23.694Z,14.15
2023-10-23T22:56:50.446Z,14.14
2023-10-23T22:59:17.525Z,14.11
2023-10-23T23:01:44.477Z,14.09
2023-10-23T23:04:11.666Z,14.09
2023-10-23T23:06:40.818Z,14.05
2023-10-23T23:09:07.539Z,14.04
2023-10-23T23:11:34.633Z,14.02
2023-10-23T23:14:01.487Z,13.99
2023-10-23T23:16:30.391Z,13.98
2023-10-23T23:18:58.321Z,13.96
2023-10-23T23:21:26.899Z,13.95
2023-10-23T23:23:53.527Z,13.94
2023-10-23T23:26:20.198Z,13.94
2023-10-23T23:28:46.860Z,13.93
2023-10-23T23:31:13.758Z,13.93
2023-10-23T23:33:40.424Z,13.91
2023-10-23T23:36:07.095Z,13.91
2023-10-23T23:38:33.886Z,13.90
2023-10-23T23:41:00.557Z,13.89
2023-10-23T23:43:27.379Z,13.87
2023-10-23T23:45:54.125Z,13.88
2023-10-23T23:48:20.793Z,13.87
2023-10-23T23:50:47.548Z,13.83
2023-10-23T23:53:14.233Z,13.79
2023-10-23T23:55:40.957Z,13.75
2023-10-23T23:58:07.629Z,13.71
